Time;durP1;ratioP1;P1;durP2;ratioP2;P2;SDS_P1;SDS_P2;PMS_P1;PMS_P2;Temp;Humidity;BMP_temperature;BMP_pressure;BME280_temperature;BME280_humidity;BME280_pressure;Samples;Min_cycle;Max_cycle;Signal;HPM_P1;HPM_P2
2021/04/10 00:00:41;;;;;;;;;;;11.50;80.60;;;;;;4317692;33;20061;-76
2021/04/10 00:03:17;;;;;;;;;;;11.50;80.70;;;;;;4316909;33;20010;-76
2021/04/10 00:05:47;;;;;;;;;;;11.50;80.80;;;;;;4291136;33;36107;-76
2021/04/10 00:08:20;;;;;;;;;;;11.50;80.80;;;;;;4304352;33;20021;-76
2021/04/10 00:10:58;;;;;;;;;;;11.50;80.80;;;;;;4303576;33;32417;-76
2021/04/10 00:13:31;;;;;;;;;;;11.40;80.90;;;;;;4302756;33;39764;-76
2021/04/10 00:16:05;;;;;;;;;;;11.40;81.00;;;;;;4304295;33;20040;-76
2021/04/10 00:18:38;;;;;;;;;;;11.40;80.50;;;;;;4291113;33;39420;-76
2021/04/10 00:21:10;;;;;;;;;;;11.40;81.00;;;;;;4303650;33;32372;-76
2021/04/10 00:23:46;;;;;;;;;;;11.40;81.00;;;;;;4303653;33;20415;-77
2021/04/10 00:26:19;;;;;;;;;;;11.30;81.20;;;;;;4303335;33;33476;-76
2021/04/10 00:28:52;;;;;;;;;;;11.40;81.50;;;;;;4316527;33;20018;-76
2021/04/10 00:31:22;;;;;;;;;;;11.30;81.30;;;;;;4304129;33;20018;-76
2021/04/10 00:33:57;;;;;;;;;;;11.30;81.40;;;;;;4291767;33;36505;-76
2021/04/10 00:36:33;;;;;;;;;;;11.30;81.40;;;;;;4304227;33;20017;-76
2021/04/10 00:39:02;;;;;;;;;;;11.30;81.60;;;;;;4315491;33;29754;-77
2021/04/10 00:41:37;;;;;;;;;;;11.30;81.80;;;;;;4303182;33;20021;-76
2021/04/10 00:44:07;;;;;;;;;;;11.20;81.80;;;;;;4313368;33;43549;-76
2021/04/10 00:46:45;;;;;;;;;;;11.30;81.80;;;;;;4303930;33;20377;-77
2021/04/10 00:49:20;;;;;;;;;;;11.30;82.10;;;;;;4315107;33;40721;-76
2021/04/10 00:51:55;;;;;;;;;;;11.30;82.00;;;;;;4304173;33;44378;-76
2021/04/10 00:54:25;;;;;;;;;;;11.20;82.00;;;;;;4306299;33;28438;-76
2021/04/10 00:56:58;;;;;;;;;;;11.20;82.20;;;;;;4305439;33;41118;-76
2021/04/10 00:59:30;;;;;;;;;;;11.30;82.20;;;;;;4319208;33;33733;-76
2021/04/10 01:02:04;;;;;;;;;;;11.30;82.20;;;;;;4305857;33;36468;-76
2021/04/10 01:04:33;;;;;;;;;;;11.20;82.00;;;;;;4318271;33;44483;-76
2021/04/10 01:07:11;;;;;;;;;;;11.20;82.20;;;;;;4319830;33;20018;-76
2021/04/10 01:09:46;;;;;;;;;;;11.20;82.40;;;;;;4317558;33;43650;-76
2021/04/10 01:12:25;;;;;;;;;;;11.20;82.40;;;;;;4306474;33;20004;-76
2021/04/10 01:15:01;;;;;;;;;;;11.20;82.40;;;;;;4307087;33;20027;-76
2021/04/10 01:17:38;;;;;;;;;;;11.20;82.60;;;;;;4306339;33;20017;-76
2021/04/10 01:20:18;;;;;;;;;;;11.10;82.40;;;;;;4294127;33;20009;-76
2021/04/10 01:22:57;;;;;;;;;;;11.10;82.50;;;;;;4319795;33;20049;-76
2021/04/10 01:25:55;;;;;;;;;;;11.10;82.50;;;;;;4313358;33;19998;-76
2021/04/10 01:28:43;;;;;;;;;;;11.10;82.70;;;;;;4269256;33;20073;-76
2021/04/10 01:31:19;;;;;;;;;;;11.00;82.80;;;;;;4306622;33;19999;-76
2021/04/10 01:33:57;;;;;;;;;;;11.00;82.90;;;;;;4315285;33;20343;-76
2021/04/10 01:36:32;;;;;;;;;;;11.00;83.20;;;;;;4319613;33;20009;-76
2021/04/10 01:39:09;;;;;;;;;;;10.90;83.00;;;;;;4319543;33;20024;-76
2021/04/10 01:41:52;;;;;;;;;;;10.90;83.20;;;;;;4318548;33;20413;-76
2021/04/10 01:44:30;;;;;;;;;;;10.80;83.30;;;;;;4314095;33;20073;-76
2021/04/10 01:47:09;;;;;;;;;;;10.80;83.50;;;;;;4316580;33;20062;-76
2021/04/10 01:49:54;;;;;;;;;;;10.80;83.70;;;;;;4317847;33;20066;-76
2021/04/10 01:52:33;;;;;;;;;;;10.70;84.00;;;;;;4304679;33;20065;-76
2021/04/10 01:55:03;;;;;;;;;;;10.60;84.80;;;;;;4306161;33;20050;-76
2021/04/10 01:57:42;;;;;;;;;;;10.60;84.30;;;;;;4319073;33;20049;-76
2021/04/10 02:00:12;;;;;;;;;;;10.70;84.30;;;;;;4316818;33;19991;-76
2021/04/10 02:02:45;;;;;;;;;;;10.70;84.40;;;;;;4317893;33;20010;-76
2021/04/10 02:05:18;;;;;;;;;;;10.70;84.30;;;;;;4318707;33;20014;-76
2021/04/10 02:07:51;;;;;;;;;;;10.70;84.20;;;;;;4319049;33;20023;-76
2021/04/10 02:10:25;;;;;;;;;;;10.80;84.20;;;;;;4318878;33;20091;-76
2021/04/10 02:13:00;;;;;;;;;;;10.70;84.10;;;;;;4305685;33;20014;-76
2021/04/10 02:15:33;;;;;;;;;;;10.70;84.30;;;;;;4319023;33;20014;-77
2021/04/10 02:18:11;;;;;;;;;;;10.70;84.30;;;;;;4294005;33;20040;-77
2021/04/10 02:20:44;;;;;;;;;;;10.70;84.30;;;;;;4305552;33;19998;-77
2021/04/10 02:23:20;;;;;;;;;;;10.70;84.40;;;;;;4318972;33;20016;-76
2021/04/10 02:25:57;;;;;;;;;;;10.70;84.40;;;;;;4306219;33;20018;-76
2021/04/10 02:28:35;;;;;;;;;;;10.70;84.30;;;;;;4319047;33;20065;-76
2021/04/10 02:31:12;;;;;;;;;;;10.70;84.40;;;;;;4318940;33;20015;-76
2021/04/10 02:33:45;;;;;;;;;;;10.70;84.40;;;;;;4305599;33;20474;-76
2021/04/10 02:36:20;;;;;;;;;;;10.70;84.60;;;;;;4306005;33;20398;-76
2021/04/10 02:38:56;;;;;;;;;;;10.60;84.70;;;;;;4316435;33;20000;-76
2021/04/10 02:41:31;;;;;;;;;;;10.60;84.70;;;;;;4318861;33;20041;-76
2021/04/10 02:44:10;;;;;;;;;;;10.60;84.60;;;;;;4318953;33;20018;-76
2021/04/10 02:46:50;;;;;;;;;;;10.60;84.70;;;;;;4305304;33;20013;-76
2021/04/10 02:49:25;;;;;;;;;;;10.60;84.90;;;;;;4293857;33;20057;-76
2021/04/10 02:52:03;;;;;;;;;;;10.60;85.00;;;;;;4304490;33;35915;-76
2021/04/10 02:54:38;;;;;;;;;;;10.60;84.70;;;;;;4292640;33;29273;-76
2021/04/10 02:57:12;;;;;;;;;;;10.60;84.80;;;;;;4317590;33;29210;-76
2021/04/10 02:59:50;;;;;;;;;;;10.60;84.90;;;;;;4317542;33;33679;-76
2021/04/10 03:02:18;;;;;;;;;;;10.60;84.90;;;;;;4304021;33;30402;-76
2021/04/10 03:04:46;;;;;;;;;;;10.60;84.90;;;;;;4316974;33;20009;-76
2021/04/10 03:07:14;;;;;;;;;;;10.60;84.80;;;;;;4291561;33;44993;-76
2021/04/10 03:09:47;;;;;;;;;;;10.60;84.90;;;;;;4315589;33;45201;-76
2021/04/10 03:12:17;;;;;;;;;;;10.60;84.90;;;;;;4305179;33;20370;-76
2021/04/10 03:14:54;;;;;;;;;;;10.60;84.80;;;;;;4317950;33;20380;-76
2021/04/10 03:17:27;;;;;;;;;;;10.50;84.90;;;;;;4318155;33;20031;-76
2021/04/10 03:19:57;;;;;;;;;;;10.50;84.90;;;;;;4293137;33;20005;-76
2021/04/10 03:22:36;;;;;;;;;;;10.50;85.10;;;;;;4318005;33;20077;-76
2021/04/10 03:25:05;;;;;;;;;;;10.50;85.10;;;;;;4317083;33;34798;-76
2021/04/10 03:27:35;;;;;;;;;;;10.40;85.10;;;;;;4303616;33;43776;-76
2021/04/10 03:30:15;;;;;;;;;;;10.40;85.10;;;;;;4317414;33;20033;-76
2021/04/10 03:32:48;;;;;;;;;;;10.40;85.30;;;;;;4303360;33;45349;-76
2021/04/10 03:35:26;;;;;;;;;;;10.40;85.40;;;;;;4303775;33;37552;-76
2021/04/10 03:37:56;;;;;;;;;;;10.40;85.50;;;;;;4302890;33;45614;-76
2021/04/10 03:40:32;;;;;;;;;;;10.40;85.50;;;;;;4303440;33;42489;-76
2021/04/10 03:43:04;;;;;;;;;;;10.40;85.70;;;;;;4316571;33;20056;-76
2021/04/10 03:45:33;;;;;;;;;;;10.40;85.60;;;;;;4315961;33;35918;-76
2021/04/10 03:48:04;;;;;;;;;;;10.40;85.50;;;;;;4317531;33;20009;-76
2021/04/10 03:50:39;;;;;;;;;;;10.40;85.50;;;;;;4317735;33;20061;-76
2021/04/10 03:53:11;;;;;;;;;;;10.40;85.60;;;;;;4304345;33;20384;-76
2021/04/10 03:55:44;;;;;;;;;;;10.40;85.70;;;;;;4304177;33;43248;-76
2021/04/10 03:58:19;;;;;;;;;;;10.40;85.60;;;;;;4303809;33;26018;-75
2021/04/10 04:00:52;;;;;;;;;;;10.40;85.50;;;;;;4303443;33;44421;-76
2021/04/10 04:03:24;;;;;;;;;;;10.40;85.50;;;;;;4316797;33;20140;-76
2021/04/10 04:06:00;;;;;;;;;;;10.40;85.60;;;;;;4304928;33;20018;-76
2021/04/10 04:08:29;;;;;;;;;;;10.40;85.60;;;;;;4304562;33;20027;-76
2021/04/10 04:11:02;;;;;;;;;;;10.40;85.50;;;;;;4304232;33;20085;-76
2021/04/10 04:13:39;;;;;;;;;;;10.50;85.50;;;;;;4292340;33;19998;-77
2021/04/10 04:16:11;;;;;;;;;;;10.50;85.40;;;;;;4290962;33;44700;-75
2021/04/10 04:18:44;;;;;;;;;;;10.50;85.40;;;;;;4303377;33;35297;-75
2021/04/10 04:21:21;;;;;;;;;;;10.50;85.20;;;;;;4316299;33;44620;-76
2021/04/10 04:23:50;;;;;;;;;;;10.50;85.20;;;;;;4315177;33;44677;-75
2021/04/10 04:26:26;;;;;;;;;;;10.50;85.20;;;;;;4285442;33;20319;-76
2021/04/10 04:28:58;;;;;;;;;;;10.50;85.20;;;;;;4291044;33;32619;-76
2021/04/10 04:31:31;;;;;;;;;;;10.50;85.30;;;;;;4317390;33;20044;-75
2021/04/10 04:34:04;;;;;;;;;;;10.50;85.20;;;;;;4317428;33;20132;-75
2021/04/10 04:36:36;;;;;;;;;;;10.50;85.20;;;;;;4290822;33;38923;-75
2021/04/10 04:39:11;;;;;;;;;;;10.50;85.20;;;;;;4317386;33;20355;-75
2021/04/10 04:41:49;;;;;;;;;;;10.50;85.20;;;;;;4292403;33;19998;-75
2021/04/10 04:44:19;;;;;;;;;;;10.50;85.20;;;;;;4303490;33;29888;-76
2021/04/10 04:46:52;;;;;;;;;;;10.50;85.20;;;;;;4292100;33;20054;-75
2021/04/10 04:49:23;;;;;;;;;;;10.50;85.30;;;;;;4310472;33;20070;-75
2021/04/10 04:51:58;;;;;;;;;;;10.50;85.20;;;;;;4304511;33;20021;-75
2021/04/10 04:54:28;;;;;;;;;;;10.50;85.30;;;;;;4317427;33;20006;-75
2021/04/10 04:57:01;;;;;;;;;;;10.50;85.30;;;;;;4314004;33;20359;-75
2021/04/10 04:59:33;;;;;;;;;;;10.50;85.40;;;;;;4315464;33;40266;-76
2021/04/10 05:01:59;;;;;;;;;;;10.50;85.40;;;;;;4312841;33;30164;-75
2021/04/10 05:04:29;;;;;;;;;;;10.50;85.40;;;;;;4316177;33;22555;-75
2021/04/10 05:07:03;;;;;;;;;;;10.50;85.50;;;;;;4303581;33;20465;-75
2021/04/10 05:09:36;;;;;;;;;;;10.50;85.50;;;;;;4303433;33;24843;-75
2021/04/10 05:12:06;;;;;;;;;;;10.50;85.50;;;;;;4315859;33;43086;-75
2021/04/10 05:14:35;;;;;;;;;;;10.50;85.50;;;;;;4302551;33;43567;-75
2021/04/10 05:17:11;;;;;;;;;;;10.40;85.50;;;;;;4303701;33;20362;-75
2021/04/10 05:19:41;;;;;;;;;;;10.40;85.60;;;;;;4316009;33;37432;-75
2021/04/10 05:22:20;;;;;;;;;;;10.40;85.70;;;;;;4290724;33;43921;-75
2021/04/10 05:24:50;;;;;;;;;;;10.40;85.70;;;;;;4315984;33;44463;-76
2021/04/10 05:27:21;;;;;;;;;;;10.40;85.70;;;;;;4315476;33;34861;-75
2021/04/10 05:29:56;;;;;;;;;;;10.40;85.70;;;;;;4315894;33;43424;-75
2021/04/10 05:32:26;;;;;;;;;;;10.40;85.80;;;;;;4317047;33;20052;-75
2021/04/10 05:34:58;;;;;;;;;;;10.40;85.90;;;;;;4315185;33;26423;-75
2021/04/10 05:37:28;;;;;;;;;;;10.40;85.80;;;;;;4304504;33;20157;-76
2021/04/10 05:39:59;;;;;;;;;;;10.40;86.00;;;;;;4305736;33;23480;-75
2021/04/10 05:42:32;;;;;;;;;;;10.40;86.00;;;;;;4305304;33;36377;-75
2021/04/10 05:45:07;;;;;;;;;;;10.40;86.00;;;;;;4318430;33;40042;-75
2021/04/10 05:47:36;;;;;;;;;;;10.40;86.10;;;;;;4318447;33;36313;-75
2021/04/10 05:50:09;;;;;;;;;;;10.40;86.00;;;;;;4317888;33;37878;-75
2021/04/10 05:52:43;;;;;;;;;;;10.40;86.00;;;;;;4306323;33;20347;-75
2021/04/10 05:55:15;;;;;;;;;;;10.40;86.00;;;;;;4319007;33;20114;-76
2021/04/10 05:57:48;;;;;;;;;;;10.40;86.10;;;;;;4319053;33;20021;-75
2021/04/10 06:00:18;;;;;;;;;;;10.40;86.20;;;;;;4306146;33;20024;-76
2021/04/10 06:02:52;;;;;;;;;;;10.40;87.00;;;;;;4306291;33;20014;-75
2021/04/10 06:05:27;;;;;;;;;;;10.40;86.30;;;;;;4318797;33;20006;-76
2021/04/10 06:07:56;;;;;;;;;;;10.40;86.30;;;;;;4314243;33;42882;-76
2021/04/10 06:10:31;;;;;;;;;;;10.40;86.40;;;;;;4306528;33;20009;-76
2021/04/10 06:13:04;;;;;;;;;;;10.40;86.50;;;;;;4317888;33;44442;-75
2021/04/10 06:15:37;;;;;;;;;;;10.40;86.50;;;;;;4319246;33;20023;-75
2021/04/10 06:18:07;;;;;;;;;;;10.40;86.70;;;;;;4293723;33;20033;-76
2021/04/10 06:20:42;;;;;;;;;;;10.40;86.80;;;;;;4318562;33;20068;-76
2021/04/10 06:23:15;;;;;;;;;;;10.30;86.70;;;;;;4292600;33;46560;-75
2021/04/10 06:25:49;;;;;;;;;;;10.30;86.90;;;;;;4318078;33;36733;-76
2021/04/10 06:28:22;;;;;;;;;;;10.30;87.10;;;;;;4293113;33;22166;-75
2021/04/10 06:30:55;;;;;;;;;;;10.30;87.10;;;;;;4305902;33;20116;-75
2021/04/10 06:33:27;;;;;;;;;;;10.30;87.30;;;;;;4317815;33;38725;-75
2021/04/10 06:36:06;;;;;;;;;;;10.30;88.20;;;;;;4305879;33;20017;-75
2021/04/10 06:38:35;;;;;;;;;;;10.30;87.70;;;;;;4317550;33;44637;-76
2021/04/10 06:41:09;;;;;;;;;;;10.30;87.70;;;;;;4318097;33;20014;-76
2021/04/10 06:43:38;;;;;;;;;;;10.30;87.70;;;;;;4292234;33;41041;-76
2021/04/10 06:46:09;;;;;;;;;;;10.30;87.70;;;;;;4318623;33;20066;-77
2021/04/10 06:48:42;;;;;;;;;;;10.20;87.90;;;;;;4305097;33;20001;-76
2021/04/10 06:51:12;;;;;;;;;;;10.30;88.00;;;;;;4318316;33;20075;-76
2021/04/10 06:53:42;;;;;;;;;;;10.30;88.00;;;;;;4304777;33;20081;-76
2021/04/10 06:56:24;;;;;;;;;;;10.30;88.00;;;;;;4317238;33;41171;-76
2021/04/10 06:59:14;;;;;;;;;;;10.20;88.00;;;;;;4317247;33;43672;-76
2021/04/10 07:01:41;;;;;;;;;;;10.20;88.40;;;;;;4317231;33;43365;-76
2021/04/10 07:04:11;;;;;;;;;;;10.20;88.40;;;;;;4303674;33;43515;-76
2021/04/10 07:06:40;;;;;;;;;;;10.20;88.60;;;;;;4304061;33;44318;-76
2021/04/10 07:09:11;;;;;;;;;;;10.10;88.70;;;;;;4317064;33;43597;-76
2021/04/10 07:11:41;;;;;;;;;;;10.10;88.90;;;;;;4303678;33;40744;-76
2021/04/10 07:14:12;;;;;;;;;;;10.10;88.90;;;;;;4304872;33;20010;-76
2021/04/10 07:16:39;;;;;;;;;;;10.10;89.00;;;;;;4303280;33;44906;-76
2021/04/10 07:19:13;;;;;;;;;;;10.10;89.00;;;;;;4318332;33;20073;-76
2021/04/10 07:21:42;;;;;;;;;;;10.20;89.10;;;;;;4316795;33;31508;-76
2021/04/10 07:24:14;;;;;;;;;;;10.20;89.10;;;;;;4292094;33;33394;-76
2021/04/10 07:26:49;;;;;;;;;;;10.10;89.20;;;;;;4316603;33;33251;-76
2021/04/10 07:29:29;;;;;;;;;;;10.20;89.40;;;;;;4304465;33;20066;-76
2021/04/10 07:32:03;;;;;;;;;;;10.10;89.50;;;;;;4314253;33;19998;-76
2021/04/10 07:34:43;;;;;;;;;;;10.20;89.60;;;;;;4317739;33;20053;-76
2021/04/10 07:37:27;;;;;;;;;;;10.10;89.50;;;;;;4304654;33;20065;-76
2021/04/10 07:39:56;;;;;;;;;;;10.10;89.50;;;;;;4314304;33;19998;-76
2021/04/10 07:42:29;;;;;;;;;;;10.20;89.80;;;;;;4304349;33;20029;-76
2021/04/10 07:44:59;;;;;;;;;;;10.20;89.90;;;;;;4317632;33;20017;-76
2021/04/10 07:47:36;;;;;;;;;;;10.20;90.00;;;;;;4292453;33;20359;-76
2021/04/10 07:50:17;;;;;;;;;;;10.20;89.90;;;;;;4304644;33;20077;-76
2021/04/10 07:52:51;;;;;;;;;;;10.20;89.80;;;;;;4304758;33;20065;-76
2021/04/10 07:55:36;;;;;;;;;;;10.20;89.60;;;;;;4292740;33;20057;-76
2021/04/10 07:58:29;;;;;;;;;;;10.20;89.90;;;;;;4304692;33;20457;-76
2021/04/10 08:00:58;;;;;;;;;;;10.20;90.00;;;;;;4311151;33;43545;-76
2021/04/10 08:03:31;;;;;;;;;;;10.30;90.00;;;;;;4317052;33;20021;-76
2021/04/10 08:06:06;;;;;;;;;;;10.30;89.80;;;;;;4304463;33;20023;-77
2021/04/10 08:08:42;;;;;;;;;;;10.30;90.00;;;;;;4291423;33;20010;-76
2021/04/10 08:11:09;;;;;;;;;;;10.30;90.00;;;;;;4303728;33;20491;-76
2021/04/10 08:13:38;;;;;;;;;;;10.30;90.10;;;;;;4317221;33;20068;-76
2021/04/10 08:16:26;;;;;;;;;;;10.30;90.10;;;;;;4304404;33;20013;-77
2021/04/10 08:19:00;;;;;;;;;;;10.30;90.20;;;;;;4290268;33;43949;-77
2021/04/10 08:21:32;;;;;;;;;;;10.30;90.20;;;;;;4315940;33;39274;-76
2021/04/10 08:24:05;;;;;;;;;;;10.30;90.20;;;;;;4315912;33;44192;-76
2021/04/10 08:26:37;;;;;;;;;;;10.30;90.20;;;;;;4303762;33;20006;-76
2021/04/10 08:29:12;;;;;;;;;;;10.30;90.30;;;;;;4303876;33;20018;-77
2021/04/10 08:31:44;;;;;;;;;;;10.30;90.30;;;;;;4303942;33;20057;-76
2021/04/10 08:34:14;;;;;;;;;;;10.40;90.30;;;;;;4290719;33;36694;-76
2021/04/10 08:36:45;;;;;;;;;;;10.40;90.30;;;;;;4317114;33;20028;-76
2021/04/10 08:39:17;;;;;;;;;;;10.40;90.30;;;;;;4303875;33;20073;-76
2021/04/10 08:41:52;;;;;;;;;;;10.40;90.30;;;;;;4315862;33;38644;-76
2021/04/10 08:44:25;;;;;;;;;;;10.40;90.30;;;;;;4291540;33;20063;-76
2021/04/10 08:46:58;;;;;;;;;;;10.40;90.20;;;;;;4303729;33;20065;-76
2021/04/10 08:49:33;;;;;;;;;;;10.40;90.30;;;;;;4302853;33;43623;-76
2021/04/10 08:52:06;;;;;;;;;;;10.40;90.30;;;;;;4290977;33;23440;-76
2021/04/10 08:54:40;;;;;;;;;;;10.40;90.20;;;;;;4303668;33;20036;-76
2021/04/10 08:57:13;;;;;;;;;;;10.50;90.30;;;;;;4316062;33;31302;-76
2021/04/10 08:59:54;;;;;;;;;;;10.50;90.20;;;;;;4315923;33;44057;-76
2021/04/10 09:02:24;;;;;;;;;;;10.50;90.30;;;;;;4315709;33;32557;-76
2021/04/10 09:05:00;;;;;;;;;;;10.50;90.30;;;;;;4303972;33;20010;-76
2021/04/10 09:07:45;;;;;;;;;;;10.50;90.20;;;;;;4316722;33;20057;-76
2021/04/10 09:10:26;;;;;;;;;;;10.50;90.20;;;;;;4303852;33;20044;-76
2021/04/10 09:13:04;;;;;;;;;;;10.50;90.40;;;;;;4318059;33;20005;-76
2021/04/10 09:15:37;;;;;;;;;;;10.50;90.40;;;;;;4305361;33;41917;-76
2021/04/10 09:18:08;;;;;;;;;;;10.50;90.30;;;;;;4319518;33;20415;-76
2021/04/10 09:20:50;;;;;;;;;;;10.50;90.40;;;;;;4318600;33;20018;-76
2021/04/10 09:23:23;;;;;;;;;;;10.50;90.50;;;;;;4305830;33;45285;-76
2021/04/10 09:26:10;;;;;;;;;;;10.50;90.40;;;;;;4292472;33;46611;-76
2021/04/10 09:28:59;;;;;;;;;;;10.50;90.40;;;;;;4318478;33;20026;-76
2021/04/10 09:31:39;;;;;;;;;;;10.50;90.40;;;;;;4297593;33;44287;-76
2021/04/10 09:34:26;;;;;;;;;;;10.50;90.40;;;;;;4319158;33;20009;-76
2021/04/10 09:36:59;;;;;;;;;;;10.50;90.30;;;;;;4312174;33;20017;-76
2021/04/10 09:39:45;;;;;;;;;;;10.50;90.40;;;;;;4294446;33;20398;-76
2021/04/10 09:45:21;;;;;;;;;;;10.50;90.50;;;;;;4299422;33;20029;-76
2021/04/10 09:48:01;;;;;;;;;;;10.50;90.40;;;;;;4305792;33;20053;-76
2021/04/10 09:50:34;;;;;;;;;;;10.50;90.20;;;;;;4306148;33;20009;-76
2021/04/10 09:53:29;;;;;;;;;;;10.50;90.20;;;;;;4305732;33;20022;-76
2021/04/10 09:56:09;;;;;;;;;;;10.50;90.10;;;;;;4304625;33;43628;-76
2021/04/10 09:58:45;;;;;;;;;;;10.50;90.10;;;;;;4292434;33;44859;-76
2021/04/10 10:01:19;;;;;;;;;;;10.50;90.20;;;;;;4305512;33;19998;-76
2021/04/10 10:03:54;;;;;;;;;;;10.50;90.20;;;;;;4314296;33;20407;-76
2021/04/10 10:06:27;;;;;;;;;;;10.50;90.20;;;;;;4289844;33;44816;-76
2021/04/10 10:09:29;;;;;;;;;;;10.50;90.20;;;;;;4291566;33;20057;-76
2021/04/10 10:12:00;;;;;;;;;;;10.50;90.20;;;;;;4304271;33;46896;-76
2021/04/10 10:14:50;;;;;;;;;;;10.50;90.20;;;;;;4293711;33;20014;-75
2021/04/10 10:17:28;;;;;;;;;;;10.50;90.20;;;;;;4305501;33;20010;-76
2021/04/10 10:20:15;;;;;;;;;;;10.50;90.20;;;;;;4292290;33;43493;-76
2021/04/10 10:22:47;;;;;;;;;;;10.50;90.30;;;;;;4305370;33;20052;-76
2021/04/10 10:25:23;;;;;;;;;;;10.50;90.30;;;;;;4316312;33;41354;-76
2021/04/10 10:27:53;;;;;;;;;;;10.50;90.30;;;;;;4304404;33;25313;-76
2021/04/10 10:30:29;;;;;;;;;;;10.50;90.30;;;;;;4317294;33;43912;-75
2021/04/10 10:33:04;;;;;;;;;;;10.50;90.30;;;;;;4305620;33;20464;-76
2021/04/10 10:35:51;;;;;;;;;;;10.50;90.30;;;;;;4317463;33;38020;-76
2021/04/10 10:38:18;;;;;;;;;;;10.50;90.40;;;;;;4304113;33;36835;-76
2021/04/10 10:40:53;;;;;;;;;;;10.60;90.40;;;;;;4316825;33;41345;-75
2021/04/10 10:43:26;;;;;;;;;;;10.50;90.30;;;;;;4291860;33;42850;-75
2021/04/10 10:45:59;;;;;;;;;;;10.50;90.20;;;;;;4293188;33;20012;-76
2021/04/10 10:48:41;;;;;;;;;;;10.50;90.20;;;;;;4317287;33;20014;-76
2021/04/10 10:51:18;;;;;;;;;;;10.60;90.30;;;;;;4293318;33;20346;-75
2021/04/10 10:54:00;;;;;;;;;;;10.50;90.30;;;;;;4318273;33;20017;-75
2021/04/10 10:56:33;;;;;;;;;;;10.60;90.30;;;;;;4303623;33;42751;-75
2021/04/10 10:59:11;;;;;;;;;;;10.50;90.30;;;;;;4318194;33;20013;-77
2021/04/10 11:01:41;;;;;;;;;;;10.60;90.40;;;;;;4304225;33;36154;-76
2021/04/10 11:04:23;;;;;;;;;;;10.60;90.30;;;;;;4304050;33;20089;-76
2021/04/10 11:06:51;;;;;;;;;;;10.60;90.40;;;;;;4313654;33;20689;-75
2021/04/10 11:09:28;;;;;;;;;;;10.50;90.30;;;;;;4299149;33;20040;-75
2021/04/10 11:12:10;;;;;;;;;;;10.60;90.50;;;;;;4304643;33;20002;-76
2021/04/10 11:14:47;;;;;;;;;;;10.60;90.40;;;;;;4304160;33;29217;-76
2021/04/10 11:17:33;;;;;;;;;;;10.60;90.50;;;;;;4305348;33;20052;-75
2021/04/10 11:20:20;;;;;;;;;;;10.60;90.50;;;;;;4291711;33;40505;-75
2021/04/10 11:23:07;;;;;;;;;;;10.60;90.50;;;;;;4297099;33;20006;-75
2021/04/10 11:25:51;;;;;;;;;;;10.50;90.50;;;;;;4305082;33;20054;-75
2021/04/10 11:28:31;;;;;;;;;;;10.60;90.50;;;;;;4291265;33;43257;-76
2021/04/10 11:31:10;;;;;;;;;;;10.60;90.60;;;;;;4292062;33;20021;-76
2021/04/10 11:33:39;;;;;;;;;;;10.60;90.50;;;;;;4303824;33;42878;-75
2021/04/10 11:36:12;;;;;;;;;;;10.60;90.50;;;;;;4316881;33;20013;-75
2021/04/10 11:38:58;;;;;;;;;;;10.60;90.50;;;;;;4317121;33;20738;-76
2021/04/10 11:41:47;;;;;;;;;;;10.60;90.50;;;;;;4298679;33;20058;-76
2021/04/10 11:44:17;;;;;;;;;;;10.60;90.50;;;;;;4316447;33;20305;-76
2021/04/10 11:46:50;;;;;;;;;;;10.60;90.40;;;;;;4302853;33;44382;-75
2021/04/10 11:49:27;;;;;;;;;;;10.60;90.50;;;;;;4317638;33;20056;-76
2021/04/10 11:52:14;;;;;;;;;;;10.60;90.50;;;;;;4313908;33;20058;-76
2021/04/10 11:54:50;;;;;;;;;;;10.60;90.50;;;;;;4303334;33;37305;-75
2021/04/10 11:57:27;;;;;;;;;;;10.60;90.50;;;;;;4314902;33;40813;-75
2021/04/10 12:00:13;;;;;;;;;;;10.60;90.50;;;;;;4316076;33;39866;-76
2021/04/10 12:02:43;;;;;;;;;;;10.50;90.50;;;;;;4310566;33;43520;-75
2021/04/10 12:05:25;;;;;;;;;;;10.60;90.60;;;;;;4303320;33;43793;-75
2021/04/10 12:08:12;;;;;;;;;;;10.60;90.60;;;;;;4316044;33;38845;-75
2021/04/10 12:10:52;;;;;;;;;;;10.60;90.50;;;;;;4290556;33;43522;-75
2021/04/10 12:13:25;;;;;;;;;;;10.60;90.60;;;;;;4290757;33;42694;-75
2021/04/10 12:16:06;;;;;;;;;;;10.60;90.70;;;;;;4304783;33;20009;-75
2021/04/10 12:18:36;;;;;;;;;;;10.60;90.70;;;;;;4302931;33;44085;-76
2021/04/10 12:21:07;;;;;;;;;;;10.60;90.70;;;;;;4316606;33;44104;-75
2021/04/10 12:23:45;;;;;;;;;;;10.60;90.70;;;;;;4304288;33;30586;-76
2021/04/10 12:26:18;;;;;;;;;;;10.60;90.80;;;;;;4313987;33;43658;-77
2021/04/10 12:28:48;;;;;;;;;;;10.60;90.80;;;;;;4302677;33;46058;-76
2021/04/10 12:31:17;;;;;;;;;;;10.60;90.80;;;;;;4290411;33;40177;-76
2021/04/10 12:33:53;;;;;;;;;;;10.60;90.90;;;;;;4303900;33;20073;-76
2021/04/10 12:36:26;;;;;;;;;;;10.60;90.90;;;;;;4304380;33;20073;-76
2021/04/10 12:38:58;;;;;;;;;;;10.60;90.90;;;;;;4317085;33;20069;-76
2021/04/10 12:41:33;;;;;;;;;;;10.60;91.00;;;;;;4315916;33;20088;-76
2021/04/10 12:44:08;;;;;;;;;;;10.60;91.00;;;;;;4312946;33;39518;-76
2021/04/10 12:46:38;;;;;;;;;;;10.60;91.00;;;;;;4316340;33;32482;-76
2021/04/10 12:49:10;;;;;;;;;;;10.60;91.00;;;;;;4319845;33;20073;-76
2021/04/10 12:51:48;;;;;;;;;;;10.60;91.40;;;;;;4320278;33;20069;-76
2021/04/10 12:54:27;;;;;;;;;;;10.60;91.10;;;;;;4305815;33;40866;-77
2021/04/10 12:57:04;;;;;;;;;;;10.60;91.50;;;;;;4319072;33;44481;-77
2021/04/10 12:59:35;;;;;;;;;;;10.60;91.20;;;;;;4318739;33;20029;-76
2021/04/10 13:02:04;;;;;;;;;;;10.60;91.20;;;;;;4319380;33;20048;-76
2021/04/10 13:04:34;;;;;;;;;;;10.60;91.20;;;;;;4319593;33;20065;-78
2021/04/10 13:07:07;;;;;;;;;;;10.60;91.30;;;;;;4306411;33;20373;-77
2021/04/10 13:09:43;;;;;;;;;;;10.60;91.30;;;;;;4318829;33;39608;-77
2021/04/10 13:12:13;;;;;;;;;;;10.60;91.40;;;;;;4318758;33;31981;-76
2021/04/10 13:14:51;;;;;;;;;;;10.60;91.40;;;;;;4306256;33;20239;-77
2021/04/10 13:17:30;;;;;;;;;;;10.60;91.40;;;;;;4307179;33;26148;-77
2021/04/10 13:19:57;;;;;;;;;;;10.60;91.40;;;;;;4305036;33;39329;-76
2021/04/10 13:22:26;;;;;;;;;;;10.60;91.40;;;;;;4306064;33;20410;-76
2021/04/10 13:24:58;;;;;;;;;;;10.60;91.40;;;;;;4306899;33;20048;-76
2021/04/10 13:27:31;;;;;;;;;;;10.60;91.40;;;;;;4306267;33;20069;-76
2021/04/10 13:30:06;;;;;;;;;;;10.60;91.40;;;;;;4318609;33;20111;-77
2021/04/10 13:32:35;;;;;;;;;;;10.60;91.50;;;;;;4319674;33;20431;-77
2021/04/10 13:35:03;;;;;;;;;;;10.60;91.50;;;;;;4318378;33;39087;-77
2021/04/10 13:37:38;;;;;;;;;;;10.60;91.50;;;;;;4317912;33;38532;-77
2021/04/10 13:40:09;;;;;;;;;;;10.60;91.50;;;;;;4318175;33;44497;-77
2021/04/10 13:42:44;;;;;;;;;;;10.60;91.50;;;;;;4305440;33;44075;-77
2021/04/10 13:45:16;;;;;;;;;;;10.60;91.50;;;;;;4318778;33;23447;-77
2021/04/10 13:47:48;;;;;;;;;;;10.60;91.60;;;;;;4305047;33;41300;-76
2021/04/10 13:50:23;;;;;;;;;;;10.60;91.60;;;;;;4306036;33;20029;-76
2021/04/10 13:52:58;;;;;;;;;;;10.60;91.70;;;;;;4319292;33;20077;-77
2021/04/10 13:55:34;;;;;;;;;;;10.60;91.70;;;;;;4318013;33;40880;-77
2021/04/10 13:58:09;;;;;;;;;;;10.60;91.70;;;;;;4305023;33;40139;-77
2021/04/10 14:00:41;;;;;;;;;;;10.60;91.70;;;;;;4313863;33;19998;-77
2021/04/10 14:03:13;;;;;;;;;;;10.60;91.70;;;;;;4304797;33;33270;-77
2021/04/10 14:05:46;;;;;;;;;;;10.60;91.80;;;;;;4304921;33;39775;-76
2021/04/10 14:08:20;;;;;;;;;;;10.60;91.80;;;;;;4316556;33;29005;-77
2021/04/10 14:10:56;;;;;;;;;;;10.60;91.80;;;;;;4304761;33;32302;-77
2021/04/10 14:13:28;;;;;;;;;;;10.60;91.90;;;;;;4304353;33;29935;-77
2021/04/10 14:16:01;;;;;;;;;;;10.60;91.80;;;;;;4293728;33;20043;-77
2021/04/10 14:18:40;;;;;;;;;;;10.60;91.80;;;;;;4317644;33;45170;-77
2021/04/10 14:21:12;;;;;;;;;;;10.60;91.80;;;;;;4304231;33;42307;-77
2021/04/10 14:23:43;;;;;;;;;;;10.60;91.80;;;;;;4318906;33;20010;-77
2021/04/10 14:26:16;;;;;;;;;;;10.60;91.80;;;;;;4305809;33;20058;-77
2021/04/10 14:28:43;;;;;;;;;;;10.60;91.90;;;;;;4292043;33;45308;-77
2021/04/10 14:31:16;;;;;;;;;;;10.60;91.80;;;;;;4315001;33;44655;-77
2021/04/10 14:33:45;;;;;;;;;;;10.60;91.80;;;;;;4304940;33;24652;-77
2021/04/10 14:36:14;;;;;;;;;;;10.70;91.90;;;;;;4304423;33;42973;-77
2021/04/10 14:38:44;;;;;;;;;;;10.60;91.80;;;;;;4305672;33;20014;-78
2021/04/10 14:41:17;;;;;;;;;;;10.70;91.80;;;;;;4293165;33;20073;-77
2021/04/10 14:43:44;;;;;;;;;;;10.70;91.90;;;;;;4317991;33;25300;-77
2021/04/10 14:46:10;;;;;;;;;;;10.70;91.80;;;;;;4293098;33;20510;-77
2021/04/10 14:48:41;;;;;;;;;;;10.70;91.90;;;;;;4305097;33;20014;-77
2021/04/10 14:51:10;;;;;;;;;;;10.70;91.90;;;;;;4304556;33;20081;-78
2021/04/10 14:53:38;;;;;;;;;;;10.70;91.90;;;;;;4291509;33;40988;-77
2021/04/10 14:56:09;;;;;;;;;;;10.70;91.90;;;;;;4315672;33;37380;-77
2021/04/10 14:58:36;;;;;;;;;;;10.70;91.90;;;;;;4305326;33;20038;-77
2021/04/10 15:01:09;;;;;;;;;;;10.70;91.90;;;;;;4317373;33;32404;-77